createdAt,value
2022-08-20T00:01:59.815Z,4.196
2022-08-20T00:07:01.087Z,4.196
2022-08-20T00:12:02.331Z,4.196
2022-08-20T00:17:03.778Z,4.194
2022-08-20T00:22:05.095Z,4.194
2022-08-20T00:27:06.295Z,4.194
2022-08-20T00:32:07.851Z,4.194
2022-08-20T00:37:09.042Z,4.194
2022-08-20T00:42:10.820Z,4.194
2022-08-20T00:47:12.153Z,4.194
2022-08-20T00:52:13.542Z,4.194
2022-08-20T00:57:15.545Z,4.194
2022-08-20T01:02:17.093Z,4.194
2022-08-20T01:07:19.007Z,4.194
2022-08-20T01:12:20.906Z,4.194
2022-08-20T01:17:22.265Z,4.192
2022-08-20T01:22:23.800Z,4.194
2022-08-20T01:27:25.967Z,4.192
2022-08-20T01:32:27.501Z,4.192
2022-08-20T01:37:31.440Z,4.192
2022-08-20T01:42:30.731Z,4.192
2022-08-20T01:47:36.431Z,4.192
2022-08-20T01:52:34.396Z,4.192
2022-08-20T01:57:36.229Z,4.192
2022-08-20T02:02:38.379Z,4.192
2022-08-20T02:07:40.097Z,4.192
2022-08-20T02:12:42.121Z,4.192
2022-08-20T02:17:44.106Z,4.192
2022-08-20T02:22:49.883Z,4.192
2022-08-20T02:27:47.409Z,4.192
2022-08-20T02:32:49.387Z,4.194
2022-08-20T02:37:51.447Z,4.192
2022-08-20T02:42:52.972Z,4.192
2022-08-20T02:47:54.365Z,4.192
2022-08-20T02:52:55.729Z,4.192
2022-08-20T02:57:58.515Z,4.192
2022-08-20T03:02:58.865Z,4.192
2022-08-20T03:08:00.142Z,4.192
2022-08-20T03:13:02.161Z,4.192
2022-08-20T03:18:04.332Z,4.192
2022-08-20T03:23:06.097Z,4.192
2022-08-20T03:28:07.993Z,4.192
2022-08-20T03:33:09.285Z,4.192
2022-08-20T03:38:10.600Z,4.192
2022-08-20T03:43:12.168Z,4.192
2022-08-20T03:48:13.657Z,4.192
2022-08-20T03:53:15.537Z,4.192
2022-08-20T03:58:17.518Z,4.192
2022-08-20T04:08:28.764Z,4.192
2022-08-20T04:33:33.628Z,4.192
2022-08-20T04:38:48.300Z,4.19
2022-08-20T04:43:32.237Z,4.19
2022-08-20T04:53:35.550Z,4.19
2022-08-20T05:03:39.001Z,4.19
2022-08-20T05:08:40.655Z,4.19
2022-08-20T05:13:42.622Z,4.19
2022-08-20T05:18:44.453Z,4.19
2022-08-20T05:28:54.201Z,4.19
2022-08-20T05:33:50.122Z,4.19
2022-08-20T05:38:51.371Z,4.19
2022-08-20T05:43:53.367Z,4.19
2022-08-20T05:48:54.809Z,4.19
2022-08-20T05:53:57.493Z,4.19
2022-08-20T05:58:58.539Z,4.19
2022-08-20T06:04:00.102Z,4.19
2022-08-20T06:09:02.219Z,4.19
2022-08-20T06:14:04.166Z,4.19
2022-08-20T06:19:05.648Z,4.19
2022-08-20T06:24:07.148Z,4.19
2022-08-20T06:29:09.142Z,4.19
2022-08-20T06:34:11.142Z,4.19
2022-08-20T06:39:13.148Z,4.19
2022-08-20T06:44:15.101Z,4.19
2022-08-20T06:49:16.485Z,4.19
2022-08-20T06:54:17.960Z,4.19
2022-08-20T06:59:19.548Z,4.19
2022-08-20T07:04:21.543Z,4.19
2022-08-20T07:09:23.726Z,4.19
2022-08-20T07:14:25.566Z,4.19
2022-08-20T07:19:27.440Z,4.19
2022-08-20T07:24:32.582Z,4.192
2022-08-20T07:29:30.015Z,4.19
2022-08-20T07:34:31.416Z,4.19
2022-08-20T07:39:33.656Z,4.19
2022-08-20T07:44:34.942Z,4.192
2022-08-20T07:49:36.421Z,4.19
2022-08-20T07:54:37.740Z,4.19
2022-08-20T07:59:39.068Z,4.19
2022-08-20T08:04:40.795Z,4.192
2022-08-20T08:09:42.534Z,4.19
2022-08-20T08:14:44.583Z,4.19
2022-08-20T08:19:46.390Z,4.19
2022-08-20T08:24:56.981Z,4.19
2022-08-20T08:29:49.824Z,4.19
2022-08-20T08:34:51.045Z,4.19
2022-08-20T08:39:53.210Z,4.19
2022-08-20T08:44:54.761Z,4.19
2022-08-20T08:49:56.745Z,4.19
2022-08-20T08:54:58.815Z,4.19
2022-08-20T09:00:03.684Z,4.19
2022-08-20T09:05:02.294Z,4.19
2022-08-20T09:10:04.021Z,4.19
2022-08-20T09:15:05.900Z,4.19
2022-08-20T09:20:07.151Z,4.192
2022-08-20T09:25:09.289Z,4.192
2022-08-20T09:30:10.679Z,4.192
2022-08-20T09:35:12.398Z,4.192
2022-08-20T09:40:14.195Z,4.192
2022-08-20T09:45:15.401Z,4.192
2022-08-20T09:50:17.319Z,4.192
2022-08-20T09:55:18.742Z,4.192
2022-08-20T10:00:20.713Z,4.192
2022-08-20T10:05:22.530Z,4.192
2022-08-20T10:10:24.246Z,4.192
2022-08-20T10:15:25.859Z,4.192
2022-08-20T10:20:27.260Z,4.192
2022-08-20T10:25:28.926Z,4.192
2022-08-20T10:30:30.538Z,4.192
2022-08-20T10:35:32.625Z,4.194
2022-08-20T10:40:34.485Z,4.194
2022-08-20T10:45:36.231Z,4.196
2022-08-20T10:50:37.775Z,4.196
2022-08-20T10:55:38.989Z,4.198
2022-08-20T11:00:40.981Z,4.198
2022-08-20T11:05:42.578Z,4.198
2022-08-20T11:10:44.556Z,4.198
2022-08-20T11:15:45.980Z,4.198
2022-08-20T11:20:47.589Z,4.198
2022-08-20T11:25:49.665Z,4.2
2022-08-20T11:30:51.135Z,4.2
2022-08-20T11:35:52.564Z,4.2
2022-08-20T11:40:54.258Z,4.2
2022-08-20T11:45:55.706Z,4.202
2022-08-20T11:50:57.207Z,4.206
2022-08-20T11:55:58.508Z,4.204
2022-08-20T12:00:59.797Z,4.204
2022-08-20T12:06:01.874Z,4.204
2022-08-20T12:11:03.163Z,4.204
2022-08-20T12:16:05.143Z,4.204
2022-08-20T12:21:06.732Z,4.204
2022-08-20T12:26:08.846Z,4.204
2022-08-20T12:31:10.547Z,4.204
2022-08-20T12:36:12.153Z,4.204
2022-08-20T12:41:13.365Z,4.206
2022-08-20T12:46:15.208Z,4.206
2022-08-20T12:51:17.200Z,4.206
2022-08-20T12:56:18.477Z,4.212
2022-08-20T13:01:20.557Z,4.21
2022-08-20T13:06:22.592Z,4.21
2022-08-20T13:11:23.867Z,4.21
2022-08-20T13:16:25.589Z,4.21
2022-08-20T13:21:27.620Z,4.21
2022-08-20T13:26:28.968Z,4.21
2022-08-20T13:31:30.356Z,4.21
2022-08-20T13:36:31.991Z,4.212
2022-08-20T13:41:33.374Z,4.212
2022-08-20T13:46:35.530Z,4.212
2022-08-20T13:51:36.808Z,4.212
2022-08-20T13:56:38.746Z,4.214
2022-08-20T14:01:40.832Z,4.212
2022-08-20T14:06:42.586Z,4.21
2022-08-20T14:11:44.289Z,4.21
2022-08-20T14:16:46.047Z,4.21
2022-08-20T14:21:47.652Z,4.208
2022-08-20T14:26:49.252Z,4.206
2022-08-20T14:31:50.766Z,4.204
2022-08-20T14:36:52.681Z,4.206
2022-08-20T14:41:54.713Z,4.206
2022-08-20T14:42:01.066Z,4.206
2022-08-20T14:47:02.359Z,4.206
2022-08-20T14:52:04.027Z,4.21
2022-08-20T14:57:05.245Z,4.21
2022-08-20T15:02:06.592Z,4.21
2022-08-20T15:07:08.227Z,4.208
2022-08-20T15:12:09.406Z,4.206
2022-08-20T15:17:11.299Z,4.206
2022-08-20T15:22:13.037Z,4.204
2022-08-20T15:27:18.054Z,4.204
2022-08-20T15:32:16.351Z,4.202
2022-08-20T15:37:17.724Z,4.202
2022-08-20T15:42:18.994Z,4.2
2022-08-20T15:47:20.915Z,4.2
2022-08-20T15:52:22.618Z,4.2
2022-08-20T15:57:24.639Z,4.198
2022-08-20T16:02:26.150Z,4.198
2022-08-20T16:07:28.006Z,4.198
2022-08-20T16:12:29.655Z,4.198
2022-08-20T16:17:31.602Z,4.198
2022-08-20T16:22:33.249Z,4.196
2022-08-20T16:27:34.761Z,4.196
2022-08-20T16:32:36.495Z,4.196
2022-08-20T16:37:38.516Z,4.196
2022-08-20T16:42:39.990Z,4.196
2022-08-20T16:47:42.082Z,4.196
2022-08-20T16:52:43.873Z,4.196
2022-08-20T16:57:45.172Z,4.196
2022-08-20T17:02:47.087Z,4.196
2022-08-20T17:07:50.105Z,4.196
2022-08-20T17:12:50.556Z,4.196
2022-08-20T17:17:52.306Z,4.196
2022-08-20T17:22:54.349Z,4.194
2022-08-20T17:27:56.227Z,4.194
2022-08-20T17:32:58.605Z,4.194
2022-08-20T17:37:59.662Z,4.194
2022-08-20T17:43:01.544Z,4.194
2022-08-20T17:48:03.513Z,4.194
2022-08-20T17:53:04.768Z,4.194
2022-08-20T17:58:06.449Z,4.194
2022-08-20T18:03:07.956Z,4.194
2022-08-20T18:08:09.472Z,4.194
2022-08-20T18:13:10.954Z,4.194
2022-08-20T18:18:12.725Z,4.194
2022-08-20T18:23:14.324Z,4.194
2022-08-20T18:28:15.872Z,4.194
2022-08-20T18:38:19.610Z,4.194
2022-08-20T18:43:21.094Z,4.194
2022-08-20T18:48:22.288Z,4.194
2022-08-20T18:58:26.135Z,4.194
2022-08-20T19:03:28.080Z,4.194
2022-08-20T19:08:29.730Z,4.194
2022-08-20T19:18:33.162Z,4.194
2022-08-20T19:23:34.690Z,4.192
2022-08-20T19:28:36.115Z,4.194
2022-08-20T19:33:44.067Z,4.192
2022-08-20T19:38:39.092Z,4.192
2022-08-20T19:48:42.687Z,4.192
2022-08-20T19:53:44.627Z,4.192
2022-08-20T19:58:46.225Z,4.192
2022-08-20T20:03:48.115Z,4.192
2022-08-20T20:08:49.927Z,4.192
2022-08-20T20:13:51.267Z,4.192
2022-08-20T20:19:09.419Z,4.192
2022-08-20T20:23:54.957Z,4.192
2022-08-20T20:28:56.816Z,4.192
2022-08-20T20:33:58.341Z,4.192
2022-08-20T20:38:59.996Z,4.192
2022-08-20T20:44:01.825Z,4.192
2022-08-20T20:49:03.430Z,4.192
2022-08-20T20:54:04.652Z,4.192
2022-08-20T20:59:07.275Z,4.192
2022-08-20T21:04:08.041Z,4.192
2022-08-20T21:09:09.600Z,4.192
2022-08-20T21:14:11.715Z,4.192
2022-08-20T21:19:13.316Z,4.192
2022-08-20T21:24:15.419Z,4.192
2022-08-20T21:29:17.374Z,4.192
2022-08-20T21:34:19.193Z,4.192
2022-08-20T21:39:20.400Z,4.192
2022-08-20T21:44:21.921Z,4.192
2022-08-20T21:49:23.479Z,4.192
2022-08-20T21:54:25.394Z,4.192
2022-08-20T21:59:26.966Z,4.192
2022-08-20T22:14:32.184Z,4.192
2022-08-20T22:19:33.356Z,4.192
2022-08-20T22:24:35.305Z,4.192
2022-08-20T22:29:36.421Z,4.192
2022-08-20T22:34:37.772Z,4.192
2022-08-20T22:39:39.231Z,4.192
2022-08-20T22:44:40.954Z,4.192
2022-08-20T22:49:42.559Z,4.192
2022-08-20T22:54:44.596Z,4.192
2022-08-20T22:59:49.697Z,4.192
2022-08-20T23:04:47.428Z,4.192
2022-08-20T23:09:49.046Z,4.192
2022-08-20T23:14:51.006Z,4.192
2022-08-20T23:19:52.436Z,4.192
2022-08-20T23:24:57.308Z,4.192
2022-08-20T23:29:56.557Z,4.192
2022-08-20T23:34:58.430Z,4.192
2022-08-20T23:40:00.635Z,4.194
2022-08-20T23:45:02.446Z,4.194
2022-08-20T23:50:03.974Z,4.194
2022-08-20T23:55:05.928Z,4.194
